Terminal Aerodrome Forecast
Issued by NWS

Home | Current Version | Previous Version | Text Only | Print | Product List | Glossary On
Versions: 1 2 3 4 5 6 7 8 9 10 11 12 13 14 15 16 17 18 19 20 21 22 23 24 25 26 27 28 29 30 31
000
FTUS46 KSGX 211727
TAFSAN
TAF
KSAN 211727Z 2118/2224 19012G18KT P6SM VCSH SCT015 OVC025
      TEMPO 2118/2121 3SM -SHRA BKN015
     FM212100 22012G18KT P6SM SCT025 BKN035
     FM220600 27007KT P6SM OVC025
     FM221500 18007KT P6SM SCT025 OVC035
     FM222100 24010KT P6SM SCT025 BKN035=

USA.gov is the U.S. government's official web portal to all federal, state and local government web resources and services.